Aviation Digital Data Service (ADDS)

Output produced by METARs form (0244 UTC 24 July 2017)
found at http://www.aviationweather.gov/adds/metars/
 
OBBI 240230Z 12005KT 5000 HZ NSC 33/29 Q0995 NOSIG
TAF OBBI 232300Z 2400/2506 VRB05KT 6000 NSC 
     PROB30 
     TEMPO 2400/2403 3000 HZ 
     BECMG 2410/2412 08010KT 
     PROB30 
     TEMPO 2415/2418 3000 HZ 
     BECMG 2418/2420 VRB05KT